• Join FlightAware (Why Join?)
  • Login
  • US Flag 
09:33AM EDT


 

Airport Tracker/Info


-or-


 

Live Flight TrackerFlight Track Log ✈ FDX1938 ✈ 01-Aug-2013 ✈ KLCK - KEWR

Flight Track Log - Related Links

Times and Time Zones

All times are in EDT time to prevent confusion due to time zone crossing. See the FDX1938 flight status page for this flight to view local times or setup timezone preferences in your user account.

Time Position Orientation Groundspeed Altitude Reporting Facility
EDT Latitude Longitude Course Direction KTS MPH feet Rate Location/Type
11:56PM 39.7850 -82.9620 220° Southwest 3,000  Level FlightAware
11:56PM 39.7690 -82.9800 221° Southwest 164 189 3,800 2,040 Climbing FlightAware
11:56PM 39.7620 -82.9840 204° Southwest 168 193 4,000 1,980 Climbing FlightAware
11:56PM 39.7500 -82.9870 191° South 285 328 4,400 3,600 Climbing FlightAware
11:57PM 39.7130 -82.9640 154° Southeast 280 322 6,500 4,080 Climbing FlightAware
11:57PM 39.7080 -82.9520 118° Southeast 288 331 7,200 5,220 Climbing FlightAware
11:57PM 39.7050 -82.9390 107° East 322 371 7,900 5,160 Climbing FlightAware
11:57PM 39.7030 -82.9250 101° East 330 380 8,500 3,300 Climbing FlightAware
11:58PM 39.7100 -82.8750 80° East 340 391 9,900 2,280 Climbing FlightAware
11:58PM 39.7250 -82.8140 72° East 336 387 10,800 1,980 Climbing FlightAware
11:59PM 39.7480 -82.7370 69° East 344 396 12,200 2,880 Climbing FlightAware
11:59PM 39.7700 -82.6630 69° East 389 448 14,100 3,480 Climbing FlightAware
12:00AM 39.7970 -82.5710 69° East 476 548 16,300 3,360 Climbing FlightAware
12:01AM 39.8230 -82.4820 69° East 487 560 18,300 3,180 Climbing FlightAware
12:01AM 39.8460 -82.4080 68° East 300 345 19,800 2,760 Climbing FlightAware
12:02AM 39.8740 -82.3130 69° East 373 429 21,400 2,580 Climbing FlightAware
12:02AM 39.9040 -82.2110 69° East 410 472 23,000 2,400 Climbing FlightAware
12:03AM 39.9310 -82.1170 69° East 488 562 24,400 2,580 Climbing FlightAware
12:04AM 39.9570 -82.0300 69° East 410 472 26,000 3,180 Climbing FlightAware
12:04AM 39.9870 -81.9240 70° East 459 528 28,000 3,000 Climbing FlightAware
12:05AM 40.0170 -81.8230 69° East 568 654 29,700 2,400 Climbing FlightAware
12:05AM 40.0460 -81.7240 69° East 547 629 31,000 1,140 Climbing FlightAware
12:06AM 40.0690 -81.6430 70° East 435 501 31,000  Level FlightAware
12:07AM 40.0970 -81.5460 69° East 304 350 31,000  Level FlightAware
12:07AM 40.1270 -81.4410 69° East 558 642 31,000  Level FlightAware
12:08AM 40.1520 -81.3530 70° East 448 516 31,000  Level FlightAware
12:08AM 40.1790 -81.2560 70° East 458 527 31,000  Level FlightAware
12:09AM 40.2070 -81.1590 69° East 568 654 31,000  Level FlightAware
12:09AM 40.2340 -81.0620 70° East 552 635 31,000  Level FlightAware
12:10AM 40.2600 -80.9690 70° East 552 635 31,000  Level FlightAware
12:10AM 40.2780 -80.9020 71° East 330 380 31,000  Level FlightAware
12:11AM 40.3040 -80.8090 70° East 340 391 31,000  Level FlightAware
12:12AM 40.3300 -80.7160 70° East 353 406 31,000  Level FlightAware
12:12AM 40.3610 -80.6050 70° East 447 514 31,000  Level FlightAware
12:13AM 40.3870 -80.5100 70° East 646 743 31,000  Level FlightAware
12:13AM 40.4150 -80.4070 70° East 514 592 31,000  Level FlightAware
12:14AM 40.4390 -80.3200 70° East 456 525 31,000  Level FlightAware
12:15AM 40.4660 -80.2190 71° East 370 426 31,000  Level FlightAware
12:15AM 40.4940 -80.1180 70° East 622 716 31,000  Level FlightAware
12:16AM 40.5170 -80.0320 71° East 385 443 31,000  Level FlightAware
12:16AM 40.5440 -79.9310 71° East 323 372 31,000  Level FlightAware
12:17AM 40.5690 -79.8370 71° East 438 504 31,000  Level FlightAware
12:18AM 40.5980 -79.7300 70° East 725 834 31,000  Level FlightAware
12:18AM 40.6220 -79.6380 71° East 483 556 31,000  Level FlightAware
12:19AM 40.6490 -79.5390 70° East 516 594 31,000  Level FlightAware
12:19AM 40.6750 -79.4380 71° East 603 694 31,000  Level FlightAware
12:20AM 40.7010 -79.3410 71° East 455 524 31,000  Level FlightAware
12:20AM 40.7260 -79.2440 71° East 499 574 31,000  Level FlightAware
12:21AM 40.7520 -79.1450 71° East 394 453 31,000  Level FlightAware
12:21AM 40.7740 -79.0580 72° East 334 384 31,000  Level FlightAware
12:22AM 40.7950 -78.9410 77° East 559 643 31,000  Level FlightAware
12:23AM 40.7990 -78.8400 87° East 613 705 31,000  Level FlightAware
12:23AM 40.8020 -78.7370 88° East 492 566 31,000  Level FlightAware
12:24AM 40.8060 -78.6200 87° East 656 755 31,000  Level FlightAware
12:24AM 40.8100 -78.5110 87° East 562 647 31,000  Level FlightAware
12:25AM 40.8160 -78.3450 87° East 398 458 31,000  Level FlightAware
12:26AM 40.8200 -78.2180 88° East 539 620 31,000  Level FlightAware
12:27AM 40.8250 -78.0860 87° East 711 818 31,000  Level FlightAware
12:27AM 40.8280 -77.9890 88° East 445 512 31,000  Level FlightAware
12:28AM 40.8310 -77.8750 88° East 339 390 31,000  Level FlightAware
12:28AM 40.8340 -77.7600 88° East 656 755 31,000  Level FlightAware
12:29AM 40.8380 -77.6490 87° East 383 441 31,000  Level FlightAware
12:29AM 40.8410 -77.5370 88° East 415 478 31,000  Level FlightAware
12:30AM 40.8449 -77.3763 88° East 531 611 31,000  Level FlightAware ADS-B
12:31AM 40.8474 -77.2756 88° East 522 601 31,000  Level FlightAware ADS-B
12:31AM 40.8496 -77.1796 88° East 519 597 31,000  Level FlightAware ADS-B
12:32AM 40.8521 -77.0765 88° East 522 601 31,000  Level FlightAware ADS-B
12:32AM 40.8542 -76.9793 88° East 521 600 31,000  Level FlightAware ADS-B
12:33AM 40.8563 -76.8851 88° East 511 588 31,000 -120 Level FlightAware ADS-B
12:33AM 40.8582 -76.7905 88° East 514 592 30,900 -1,320 Descending FlightAware ADS-B
12:34AM 40.8600 -76.6951 89° East 515 593 29,700 -2,580 Descending FlightAware ADS-B
12:34AM 40.8621 -76.5987 88° East 508 585 28,300 -2,460 Descending FlightAware ADS-B
12:35AM 40.8636 -76.5029 89° East 528 608 27,200 -2,220 Descending FlightAware ADS-B
12:35AM 40.8652 -76.4075 89° East 511 588 26,100 -2,100 Descending FlightAware ADS-B
12:36AM 40.8668 -76.3136 89° East 500 575 25,100 -2,220 Descending FlightAware ADS-B
12:36AM 40.8683 -76.2223 89° East 485 558 23,900 -2,220 Descending FlightAware ADS-B
12:37AM 40.8695 -76.1296 89° East 471 542 22,800 -2,100 Descending FlightAware ADS-B
12:37AM 40.8709 -76.0414 89° East 465 535 21,700 -2,040 Descending FlightAware ADS-B
12:38AM 40.8721 -75.9540 89° East 478 550 20,700 -2,100 Descending FlightAware ADS-B
12:38AM 40.8729 -75.8704 89° East 435 501 19,600 -2,220 Descending FlightAware ADS-B
12:39AM 40.8738 -75.7878 89° East 435 501 18,500 -2,100 Descending FlightAware ADS-B
12:39AM 40.8748 -75.7070 89° East 424 488 17,500 -2,100 Descending FlightAware ADS-B
12:40AM 40.8755 -75.6285 89° East 423 487 16,400 -2,100 Descending FlightAware ADS-B
12:40AM 40.8762 -75.5504 89° East 420 483 15,400 -2,100 Descending FlightAware ADS-B
12:41AM 40.8769 -75.4757 89° East 389 448 14,300 -2,100 Descending FlightAware ADS-B
12:41AM 40.8777 -75.4009 89° East 404 465 13,300 -2,100 Descending FlightAware ADS-B
12:42AM 40.8783 -75.3267 89° East 408 470 12,200 -2,160 Descending FlightAware ADS-B
12:42AM 40.8789 -75.2517 89° East 393 452 11,100 -2,160 Descending FlightAware ADS-B
12:43AM 40.8794 -75.1807 89° East 370 426 10,000 -1,620 Descending FlightAware ADS-B
12:43AM 40.8793 -75.1472 90° East 348 400 9,900 -1,680 Descending FlightAware ADS-B
12:44AM 40.8783 -75.1123 92° East 339 390 9,100 -2,100 Descending FlightAware ADS-B
12:44AM 40.8744 -75.0821 100° East 336 387 8,800 -420 Descending FlightAware ADS-B
12:44AM 40.8676 -75.0538 108° East 305 351 8,900  Climbing FlightAware ADS-B
12:44AM 40.8589 -75.0246 111° Southeast 301 346 8,800 -900 Descending FlightAware ADS-B
12:45AM 40.8497 -74.9966 113° Southeast 290 334 8,400 -1,500 Descending FlightAware ADS-B
12:45AM 40.8414 -74.9703 113° Southeast 311 358 8,000 -1,440 Descending FlightAware ADS-B
12:45AM 40.8336 -74.9451 112° Southeast 295 339 7,700 -1,200 Descending FlightAware ADS-B
12:45AM 40.8262 -74.9190 111° Southeast 292 336 7,400 -960 Descending FlightAware ADS-B
12:46AM 40.8242 -74.8911 95° East 284 327 7,200 -600 Descending FlightAware ADS-B
12:46AM 40.8278 -74.8641 80° East 295 339 7,100 -240 Descending FlightAware ADS-B
12:46AM 40.8319 -74.8382 78° East 290 334 7,100  Level FlightAware ADS-B
12:46AM 40.8359 -74.8114 79° East 303 349 7,100  Level FlightAware ADS-B
12:47AM 40.8398 -74.7843 79° East 287 330 7,100  Level FlightAware ADS-B
12:47AM 40.8449 -74.7518 78° East 299 344 7,100  Level FlightAware ADS-B
12:48AM 40.8551 -74.6868 78° East 295 339 7,100  Level FlightAware ADS-B
12:48AM 40.8599 -74.6571 78° East 298 343 7,100 -780 Level FlightAware ADS-B
12:48AM 40.8642 -74.6305 78° East 285 328 6,700 -1,620 Descending FlightAware ADS-B
12:48AM 40.8683 -74.6045 78° East 293 337 6,300 -1,620 Descending FlightAware ADS-B
12:49AM 40.8721 -74.5788 79° East 287 330 5,900 -1,380 Descending FlightAware ADS-B
12:49AM 40.8762 -74.5523 78° East 291 335 5,600 -1,200 Descending FlightAware ADS-B
12:49AM 40.8799 -74.5261 79° East 289 333 5,300 -1,020 Descending FlightAware ADS-B
12:49AM 40.8837 -74.5009 79° East 281 323 5,100 -420 Descending FlightAware ADS-B
12:50AM 40.8880 -74.4717 79° East 275 316 5,100  Level FlightAware ADS-B
12:50AM 40.8920 -74.4453 79° East 267 307 5,100  Level FlightAware ADS-B
12:50AM 40.8971 -74.4117 79° East 278 320 5,100  Level FlightAware ADS-B
12:51AM 40.9047 -74.3634 78° East 278 320 5,100  Level FlightAware ADS-B
12:51AM 40.9130 -74.3110 78° East 279 321 5,100 -120 Level FlightAware
12:52AM 40.9180 -74.2750 80° East 229 264 5,000 -420 Descending FlightAware
12:52AM 40.9220 -74.2470 79° East 204 235 4,800 -900 Descending FlightAware
12:52AM 40.9250 -74.2260 79° East 233 268 4,500 -1,200 Descending FlightAware
12:52AM 40.9250 -74.2180 90° East 252 290 4,400 -1,260 Descending FlightAware
12:53AM 40.9190 -74.1840 103° East 272 313 3,900 -1,320 Descending FlightAware
12:53AM 40.9120 -74.1570 109° East 194 223 3,500 -1,140 Descending FlightAware
12:53AM 40.9070 -74.1410 112° Southeast 218 251 3,300 -1,020 Descending FlightAware
12:53AM 40.9030 -74.1330 123° Southeast 183 211 3,200 -780 Descending FlightAware
12:54AM 40.8940 -74.1240 143° Southeast 264 304 3,100 -240 Descending FlightAware
12:54AM 40.8790 -74.1090 143° Southeast 194 223 3,100  Level FlightAware
12:54AM 40.8670 -74.0990 148° Southeast 205 236 3,100  Level FlightAware
12:54AM 40.8610 -74.0940 148° Southeast 292 336 3,100 -300 Level FlightAware
12:54AM 40.8500 -74.0910 168° South 174 200 3,000 -960 Descending FlightAware
12:55AM 40.8340 -74.0880 172° South 202 232 2,600 -1,200 Descending FlightAware
12:55AM 40.8240 -74.0870 176° South 145 167 2,400 -840 Descending FlightAware
12:55AM 40.8030 -74.0970 200° South 230 265 2,100 -540 Descending FlightAware
12:56AM 40.7910 -74.1050 207° Southwest 118 136 2,000 -540 Descending FlightAware
12:56AM 40.7790 -74.1130 207° Southwest 194 223 1,800 -840 Descending FlightAware
12:56AM 40.7660 -74.1200 202° Southwest 183 211 1,500 -780 Descending FlightAware
12:57AM 40.7590 -74.1250 208° Southwest 123 142 1,400 -660 Descending FlightAware
12:57AM 40.7500 -74.1310 207° Southwest 146 168 1,200 -720 Descending FlightAware
12:57AM 40.7450 -74.1350 211° Southwest 97 112 1,100 -720 Descending FlightAware
12:57AM 40.7350 -74.1410 204° Southwest 159 183 900 -720 Descending FlightAware
01:06AM 40.6925 -74.1687 180° South  Level Estimated
01:07AM 40.6925 -74.1687 180° South  Level Estimated